KBYI

Burley Municipal Airport

Burley, Idaho, USA
METAR KBYI 241253Z AUTO 21007KT 10SM CLR 13/08 A3005 RMK AO2 SLP140 T01280083
Observed Flight Rules
May-24 @ 12:53 UTC (53 minutes ago) Visual Flight Rules
Wind Visibility Clouds
210° at 7 knots 10 miles
  • Clear skies
Temperatures Readings
Current 13°C / 55°F
Dewpoint 8°C / 46°F
Humidity 72%
Altimeter 30.05" Hg
Pressure 1014 hPa
Elevation 1264
METAR KBYI 241253Z AUTO 21007KT 10SM CLR 13/08 A3005 RMK AO2 SLP140 T01280083
Observed Flight Rules
May-24 @ 12:53 UTC
(53 minutes ago)
VFR
Wind Visibility
210° at 7 knots 10 miles
Clouds
  • Clear skies
Temperature Dewpoint
13°C / 55°F 8°C / 46°F
Humidity Altimeter Pressure
72% 30.05" Hg 1014 hPa